createdAt,value
2018-05-17T00:02:01.910Z,13.00
2018-05-17T00:04:35.317Z,12.90
2018-05-17T00:07:07.687Z,12.90
2018-05-17T00:09:44.263Z,12.90
2018-05-17T00:12:20.561Z,12.90
2018-05-17T00:14:53.041Z,12.90
2018-05-17T00:17:25.504Z,13.00
2018-05-17T00:19:58.116Z,13.10
2018-05-17T00:22:31.340Z,13.30
2018-05-17T00:25:03.824Z,13.30
2018-05-17T00:27:36.977Z,13.60
2018-05-17T00:30:09.612Z,13.60
2018-05-17T00:32:42.085Z,13.90
2018-05-17T00:35:15.501Z,13.90
2018-05-17T00:37:48.673Z,14.00
2018-05-17T00:40:21.284Z,14.00
2018-05-17T00:42:54.713Z,13.90
2018-05-17T00:45:28.205Z,13.90
2018-05-17T00:48:00.697Z,13.80
2018-05-17T00:50:33.203Z,13.70
2018-05-17T00:53:18.103Z,13.70
2018-05-17T00:55:50.768Z,13.70
2018-05-17T00:58:24.060Z,13.70
2018-05-17T01:00:56.498Z,13.60
2018-05-17T01:03:30.069Z,13.50
2018-05-17T01:06:02.680Z,13.40
2018-05-17T01:08:35.241Z,13.40
2018-05-17T01:11:07.748Z,13.40
2018-05-17T01:13:40.317Z,13.40
2018-05-17T01:16:12.813Z,13.40
2018-05-17T01:18:45.322Z,13.40
2018-05-17T01:21:17.737Z,13.40
2018-05-17T01:23:50.172Z,13.30
2018-05-17T01:26:23.381Z,13.30
2018-05-17T01:28:56.673Z,13.30
2018-05-17T01:31:29.040Z,13.30
2018-05-17T01:34:02.726Z,13.30
2018-05-17T01:36:47.403Z,13.30
2018-05-17T01:39:19.924Z,13.30
2018-05-17T01:41:52.335Z,13.20
2018-05-17T01:44:25.940Z,13.20
2018-05-17T01:46:58.400Z,13.20
2018-05-17T01:49:31.820Z,13.20
2018-05-17T01:52:04.293Z,13.20
2018-05-17T01:54:36.685Z,13.20
2018-05-17T01:57:09.276Z,13.20
2018-05-17T01:59:42.572Z,13.20
2018-05-17T02:02:15.188Z,13.10
2018-05-17T02:04:48.365Z,13.20
2018-05-17T02:07:20.984Z,13.20
2018-05-17T02:09:53.468Z,13.10
2018-05-17T02:12:26.648Z,13.10
2018-05-17T02:14:58.974Z,13.10
2018-05-17T02:17:31.520Z,13.20
2018-05-17T02:20:04.045Z,13.20
2018-05-17T02:22:36.501Z,13.30
2018-05-17T02:25:09.672Z,13.50
2018-05-17T02:27:42.293Z,13.50
2018-05-17T02:30:15.722Z,13.50
2018-05-17T02:32:49.855Z,13.10
2018-05-17T02:35:22.421Z,13.10
2018-05-17T02:37:54.996Z,13.10
2018-05-17T02:40:27.409Z,13.10
2018-05-17T02:43:00.910Z,13.00
2018-05-17T02:45:33.390Z,13.00
2018-05-17T02:48:05.972Z,13.00
2018-05-17T02:50:38.452Z,13.00
2018-05-17T02:53:11.664Z,13.20
2018-05-17T02:55:44.209Z,13.20
2018-05-17T02:58:16.736Z,13.40
2018-05-17T03:00:49.134Z,13.60
2018-05-17T03:03:23.656Z,13.50
2018-05-17T03:05:56.835Z,13.20
2018-05-17T03:08:31.185Z,13.10
2018-05-17T03:11:03.607Z,13.10
2018-05-17T03:13:37.000Z,13.00
2018-05-17T03:16:09.600Z,13.00
2018-05-17T03:18:43.190Z,13.00
2018-05-17T03:21:16.303Z,12.90
2018-05-17T03:23:48.664Z,12.90
2018-05-17T03:26:21.070Z,12.90
2018-05-17T03:28:53.465Z,12.80
2018-05-17T03:31:26.753Z,12.80
2018-05-17T03:33:59.293Z,12.80
2018-05-17T03:36:32.544Z,13.00
2018-05-17T03:39:08.921Z,13.00
2018-05-17T03:41:41.613Z,13.10
2018-05-17T03:44:14.036Z,13.20
2018-05-17T03:46:46.612Z,13.20
2018-05-17T03:49:19.064Z,13.20
2018-05-17T03:51:51.665Z,13.20
2018-05-17T03:54:24.078Z,13.20
2018-05-17T03:56:56.543Z,13.00
2018-05-17T03:59:28.879Z,12.90
2018-05-17T04:02:13.724Z,12.90
2018-05-17T04:05:01.707Z,12.80
2018-05-17T04:07:34.151Z,12.90
2018-05-17T04:10:08.576Z,12.90
2018-05-17T04:12:41.885Z,12.90
2018-05-17T04:15:14.392Z,12.90
2018-05-17T04:17:46.753Z,12.90
2018-05-17T04:20:19.243Z,12.90
2018-05-17T04:22:51.875Z,13.00
2018-05-17T04:25:24.476Z,13.00
2018-05-17T04:27:57.603Z,13.00
2018-05-17T04:30:30.112Z,13.00
2018-05-17T04:33:02.606Z,13.00
2018-05-17T04:35:36.321Z,13.10
2018-05-17T04:38:08.684Z,13.10
2018-05-17T04:40:41.993Z,13.10
2018-05-17T04:43:14.616Z,13.10
2018-05-17T04:45:47.128Z,13.10
2018-05-17T04:48:19.860Z,13.00
2018-05-17T04:50:55.640Z,12.90
2018-05-17T04:53:28.017Z,12.90
2018-05-17T04:56:00.600Z,12.90
2018-05-17T04:58:33.088Z,12.80
2018-05-17T05:01:06.605Z,12.80
2018-05-17T05:03:39.181Z,12.90
2018-05-17T05:06:11.785Z,13.00
2018-05-17T05:08:44.990Z,13.00
2018-05-17T05:11:17.378Z,13.00
2018-05-17T05:13:51.925Z,12.90
2018-05-17T05:16:24.398Z,13.10
2018-05-17T05:18:57.011Z,13.10
2018-05-17T05:21:29.484Z,13.10
2018-05-17T05:24:03.101Z,13.20
2018-05-17T05:26:35.633Z,13.30
2018-05-17T05:29:09.910Z,13.40
2018-05-17T05:31:42.389Z,13.40
2018-05-17T05:34:15.797Z,13.50
2018-05-17T05:36:48.292Z,13.60
2018-05-17T05:39:20.783Z,13.70
2018-05-17T05:41:53.371Z,13.70
2018-05-17T05:44:26.536Z,13.90
2018-05-17T05:46:59.892Z,14.00
2018-05-17T05:49:32.335Z,14.00
2018-05-17T05:52:04.853Z,14.20
2018-05-17T05:54:37.380Z,14.30
2018-05-17T05:57:09.929Z,14.40
2018-05-17T05:59:42.328Z,14.40
2018-05-17T06:02:15.724Z,14.60
2018-05-17T06:04:49.125Z,14.70
2018-05-17T06:07:21.615Z,14.70
2018-05-17T06:09:54.080Z,14.60
2018-05-17T06:12:26.684Z,14.70
2018-05-17T06:15:00.140Z,14.70
2018-05-17T06:17:33.296Z,14.60
2018-05-17T06:20:05.705Z,14.50
2018-05-17T06:22:39.296Z,14.40
2018-05-17T06:25:11.797Z,14.40
2018-05-17T06:27:44.281Z,14.40
2018-05-17T06:30:17.544Z,14.30
2018-05-17T06:32:51.725Z,14.30
2018-05-17T06:35:24.288Z,14.30
2018-05-17T06:37:56.789Z,14.30
2018-05-17T06:40:29.980Z,13.90
2018-05-17T06:43:02.472Z,13.90
2018-05-17T06:45:37.016Z,13.90
2018-05-17T06:48:12.768Z,13.90
2018-05-17T06:50:46.095Z,13.80
2018-05-17T06:53:18.476Z,13.80
2018-05-17T06:55:53.033Z,13.80
2018-05-17T06:58:25.485Z,13.70
2018-05-17T07:00:57.899Z,13.60
2018-05-17T07:03:31.384Z,13.60
2018-05-17T07:06:04.106Z,13.60
2018-05-17T07:08:36.561Z,13.60
2018-05-17T07:11:08.956Z,13.50
2018-05-17T07:13:41.337Z,13.60
2018-05-17T07:16:13.928Z,13.60
2018-05-17T07:18:47.355Z,13.80
2018-05-17T07:21:20.673Z,13.80
2018-05-17T07:23:53.042Z,14.00
2018-05-17T07:26:26.350Z,14.30
2018-05-17T07:28:59.540Z,14.40
2018-05-17T07:31:31.923Z,14.40
2018-05-17T07:34:04.322Z,14.30
2018-05-17T07:36:36.793Z,14.40
2018-05-17T07:39:09.557Z,14.40
2018-05-17T07:41:41.965Z,14.40
2018-05-17T07:44:15.068Z,14.50
2018-05-17T07:46:51.876Z,14.50
2018-05-17T07:49:27.431Z,14.50
2018-05-17T07:51:59.916Z,14.50
2018-05-17T07:54:35.992Z,14.50
2018-05-17T07:57:08.420Z,14.50
2018-05-17T07:59:41.690Z,14.40
2018-05-17T08:02:14.192Z,14.40
2018-05-17T08:04:47.361Z,14.30
2018-05-17T08:07:19.909Z,14.30
2018-05-17T08:09:52.500Z,14.30
2018-05-17T08:12:25.136Z,14.40
2018-05-17T08:14:57.618Z,14.50
2018-05-17T08:17:30.041Z,14.40
2018-05-17T08:20:02.537Z,14.40
2018-05-17T08:22:35.180Z,14.40
2018-05-17T08:25:07.680Z,14.30
2018-05-17T08:27:40.144Z,14.20
2018-05-17T08:30:12.536Z,14.10
2018-05-17T08:32:45.944Z,14.10
2018-05-17T08:35:18.432Z,14.40
2018-05-17T08:37:51.020Z,14.50
2018-05-17T08:40:23.474Z,15.00
2018-05-17T08:42:57.030Z,15.20
2018-05-17T08:45:33.346Z,15.60
2018-05-17T08:48:05.785Z,15.90
2018-05-17T08:50:38.296Z,16.00
2018-05-17T08:53:11.824Z,16.10
2018-05-17T08:55:44.284Z,16.10
2018-05-17T08:58:16.769Z,16.30
2018-05-17T09:00:49.124Z,16.80
2018-05-17T09:03:23.511Z,16.90
2018-05-17T09:05:55.980Z,16.90
2018-05-17T09:08:29.376Z,16.90
2018-05-17T09:11:01.756Z,16.90
2018-05-17T09:13:34.455Z,16.90
2018-05-17T09:16:07.486Z,16.20
2018-05-17T09:18:40.160Z,16.20
2018-05-17T09:21:12.549Z,16.10
2018-05-17T09:23:45.112Z,15.80
2018-05-17T09:26:17.600Z,15.60
2018-05-17T09:28:50.084Z,15.40
2018-05-17T09:31:22.540Z,15.40
2018-05-17T09:33:55.033Z,15.40
2018-05-17T09:36:31.254Z,15.50
2018-05-17T09:39:05.372Z,15.80
2018-05-17T09:41:37.856Z,15.80
2018-05-17T09:44:10.456Z,16.00
2018-05-17T09:46:42.949Z,16.40
2018-05-17T09:49:15.307Z,16.30
2018-05-17T09:51:47.816Z,16.50
2018-05-17T09:54:20.284Z,16.70
2018-05-17T09:56:55.973Z,16.70
2018-05-17T09:59:28.576Z,16.70
2018-05-17T10:02:00.926Z,16.90
2018-05-17T10:04:33.517Z,16.90
2018-05-17T10:07:06.749Z,17.00
2018-05-17T10:09:39.928Z,16.90
2018-05-17T10:12:12.310Z,16.90
2018-05-17T10:14:45.641Z,16.70
2018-05-17T10:17:18.004Z,16.70
2018-05-17T10:19:51.191Z,17.00
2018-05-17T10:22:23.661Z,17.00
2018-05-17T10:24:56.172Z,17.20
2018-05-17T10:27:28.660Z,17.50
2018-05-17T10:30:01.088Z,17.00
2018-05-17T10:32:34.253Z,16.70
2018-05-17T10:35:06.581Z,16.70
2018-05-17T10:37:40.154Z,16.70
2018-05-17T10:40:14.309Z,17.10
2018-05-17T10:42:48.812Z,17.10
2018-05-17T10:45:21.298Z,17.10
2018-05-17T10:47:53.872Z,17.10
2018-05-17T10:50:26.285Z,17.20
2018-05-17T10:52:58.862Z,17.30
2018-05-17T10:55:31.336Z,17.40
2018-05-17T10:58:03.948Z,17.50
2018-05-17T11:00:36.316Z,17.20
2018-05-17T11:03:10.577Z,17.00
2018-05-17T11:05:42.952Z,17.00
2018-05-17T11:08:15.524Z,16.90
2018-05-17T11:10:49.969Z,17.10
2018-05-17T11:13:24.180Z,17.10
2018-05-17T11:15:56.756Z,17.10
2018-05-17T11:18:29.265Z,17.10
2018-05-17T11:21:01.745Z,17.00
2018-05-17T11:23:34.232Z,17.20
2018-05-17T11:26:06.612Z,17.40
2018-05-17T11:28:39.115Z,17.60
2018-05-17T11:31:11.453Z,17.60
2018-05-17T11:33:44.085Z,17.40
2018-05-17T11:36:18.701Z,17.40
2018-05-17T11:38:52.101Z,17.40
2018-05-17T11:41:25.428Z,17.70
2018-05-17T11:43:57.828Z,17.70
2018-05-17T11:46:31.116Z,18.90
2018-05-17T11:49:03.597Z,18.90
2018-05-17T11:51:37.119Z,19.10
2018-05-17T11:54:09.629Z,19.40
2018-05-17T11:56:42.804Z,19.10
2018-05-17T11:59:15.207Z,19.10
2018-05-17T12:01:47.788Z,19.00
2018-05-17T12:04:20.175Z,19.40
2018-05-17T12:06:53.400Z,19.20
2018-05-17T12:09:25.872Z,19.20
2018-05-17T12:11:58.348Z,18.80
2018-05-17T12:14:30.945Z,19.00
2018-05-17T12:17:03.324Z,19.10
2018-05-17T12:19:35.924Z,19.30
2018-05-17T12:22:08.988Z,19.30
2018-05-17T12:24:45.508Z,19.00
2018-05-17T12:27:17.991Z,18.90
2018-05-17T12:29:50.548Z,19.00
2018-05-17T12:32:22.964Z,18.70
2018-05-17T12:34:55.458Z,19.00
2018-05-17T12:37:27.951Z,19.30
2018-05-17T12:40:00.495Z,19.30
2018-05-17T12:42:33.089Z,19.30
2018-05-17T12:45:05.500Z,19.00
2018-05-17T12:47:38.339Z,19.20
2018-05-17T12:50:10.985Z,19.20
2018-05-17T12:52:43.472Z,18.90
2018-05-17T12:55:15.952Z,19.50
2018-05-17T12:57:48.581Z,19.60
2018-05-17T13:00:20.941Z,19.90
2018-05-17T13:02:53.352Z,19.90
2018-05-17T13:05:26.029Z,19.80
2018-05-17T13:07:58.516Z,19.40
2018-05-17T13:10:31.830Z,19.60
2018-05-17T13:13:06.355Z,19.60
2018-05-17T13:15:39.545Z,19.70
2018-05-17T13:18:11.942Z,19.60
2018-05-17T13:20:44.743Z,19.80
2018-05-17T13:23:17.132Z,19.80
2018-05-17T13:25:49.616Z,19.70
2018-05-17T13:28:21.996Z,19.80
2018-05-17T13:30:54.489Z,19.90
2018-05-17T13:33:26.971Z,20.10
2018-05-17T13:35:59.344Z,20.20
2018-05-17T13:38:31.833Z,20.20
2018-05-17T13:41:04.338Z,20.30
2018-05-17T13:43:36.920Z,20.60
2018-05-17T13:46:09.301Z,20.70
2018-05-17T13:48:41.640Z,20.60
2018-05-17T13:51:15.856Z,20.90
2018-05-17T13:53:48.396Z,20.90
2018-05-17T13:56:21.512Z,20.30
2018-05-17T13:58:54.734Z,20.60
2018-05-17T14:01:27.180Z,20.60
2018-05-17T14:04:00.513Z,20.70
2018-05-17T14:06:33.008Z,20.70
2018-05-17T14:09:06.229Z,20.60
2018-05-17T14:11:38.584Z,20.60
2018-05-17T14:14:11.185Z,20.70
2018-05-17T14:16:44.369Z,21.20
2018-05-17T14:19:16.780Z,21.20
2018-05-17T14:21:49.214Z,20.90
2018-05-17T14:24:22.537Z,20.80
2018-05-17T14:26:56.033Z,20.70
2018-05-17T14:29:28.655Z,20.60
2018-05-17T14:32:01.048Z,20.60
2018-05-17T14:34:33.440Z,20.50
2018-05-17T14:37:06.005Z,20.20
2018-05-17T14:39:38.399Z,20.30
2018-05-17T14:42:10.779Z,20.60
2018-05-17T14:44:43.127Z,21.00
2018-05-17T14:47:20.569Z,21.10
2018-05-17T14:49:53.059Z,21.10
2018-05-17T14:52:25.532Z,20.80
2018-05-17T14:54:58.000Z,20.30
2018-05-17T14:57:31.334Z,20.30
2018-05-17T15:00:03.748Z,20.30
2018-05-17T15:02:36.417Z,20.30
2018-05-17T15:05:08.816Z,20.10
2018-05-17T15:07:41.190Z,20.30
2018-05-17T15:10:13.767Z,20.70
2018-05-17T15:12:46.247Z,20.30
2018-05-17T15:15:18.753Z,20.10
2018-05-17T15:17:51.385Z,20.10
2018-05-17T15:20:25.059Z,20.70
2018-05-17T15:22:57.564Z,20.80
2018-05-17T15:25:31.777Z,21.20
2018-05-17T15:28:04.144Z,21.20
2018-05-17T15:30:37.462Z,22.60
2018-05-17T15:33:09.856Z,22.60
2018-05-17T15:35:42.349Z,22.90
2018-05-17T15:38:14.712Z,22.30
2018-05-17T15:40:47.189Z,21.80
2018-05-17T15:43:19.705Z,21.70
2018-05-17T15:45:52.098Z,21.70
2018-05-17T15:48:24.768Z,21.20
2018-05-17T15:50:57.980Z,21.10
2018-05-17T15:53:31.628Z,21.00
2018-05-17T15:56:03.980Z,21.30
2018-05-17T15:58:37.283Z,21.90
2018-05-17T16:01:09.684Z,21.90
2018-05-17T16:03:42.257Z,21.90
2018-05-17T16:06:14.773Z,22.00
2018-05-17T16:08:47.364Z,22.20
2018-05-17T16:11:19.814Z,21.60
2018-05-17T16:13:53.031Z,21.00
2018-05-17T16:16:25.625Z,20.90
2018-05-17T16:18:57.992Z,20.70
2018-05-17T16:21:30.709Z,20.60
2018-05-17T16:24:03.216Z,20.40
2018-05-17T16:26:35.761Z,20.20
2018-05-17T16:29:08.120Z,20.10
2018-05-17T16:31:40.732Z,19.80
2018-05-17T16:34:13.125Z,19.60
2018-05-17T16:36:45.812Z,19.50
2018-05-17T16:39:18.233Z,19.70
2018-05-17T16:41:51.611Z,19.60
2018-05-17T16:47:07.633Z,20.00
2018-05-17T16:49:40.268Z,20.10
2018-05-17T16:52:12.932Z,20.30
2018-05-17T16:54:45.364Z,20.60
2018-05-17T16:57:17.919Z,20.20
2018-05-17T16:59:51.197Z,20.30
2018-05-17T17:02:23.676Z,20.30
2018-05-17T17:04:56.170Z,20.20
2018-05-17T17:07:29.501Z,20.00
2018-05-17T17:10:02.821Z,19.80
2018-05-17T17:12:35.437Z,19.80
2018-05-17T17:15:08.580Z,19.80
2018-05-17T17:17:40.964Z,19.70
2018-05-17T17:20:13.457Z,19.70
2018-05-17T17:22:46.032Z,19.90
2018-05-17T17:25:18.436Z,20.10
2018-05-17T17:27:50.973Z,20.70
2018-05-17T17:30:23.620Z,21.00
2018-05-17T17:32:57.310Z,21.60
2018-05-17T17:35:31.568Z,21.40
2018-05-17T17:38:04.064Z,21.30
2018-05-17T17:43:36.352Z,21.50
2018-05-17T17:46:08.863Z,21.30
2018-05-17T17:48:41.589Z,21.10
2018-05-17T17:51:15.852Z,20.90
2018-05-17T17:53:48.440Z,20.90
2018-05-17T17:56:21.945Z,20.70
2018-05-17T17:58:55.376Z,20.70
2018-05-17T18:01:28.888Z,20.60
2018-05-17T18:04:01.677Z,20.30
2018-05-17T18:06:36.244Z,20.20
2018-05-17T18:09:08.913Z,20.10
2018-05-17T18:11:42.261Z,19.30
2018-05-17T18:14:14.920Z,19.30
2018-05-17T18:16:47.509Z,19.00
2018-05-17T18:19:20.084Z,18.70
2018-05-17T18:21:52.572Z,18.50
2018-05-17T18:24:27.838Z,18.00
2018-05-17T18:27:01.247Z,17.90
2018-05-17T18:29:34.441Z,17.70
2018-05-17T18:32:11.024Z,17.60
2018-05-17T18:34:43.476Z,17.60
2018-05-17T18:37:16.841Z,17.30
2018-05-17T18:39:49.316Z,17.30
2018-05-17T18:42:23.840Z,17.30
2018-05-17T18:44:56.401Z,17.10
2018-05-17T18:47:30.572Z,16.90
2018-05-17T18:50:03.192Z,16.80
2018-05-17T18:52:35.651Z,16.60
2018-05-17T18:55:09.191Z,16.40
2018-05-17T18:57:41.858Z,16.40
2018-05-17T19:00:14.520Z,16.30
2018-05-17T19:02:47.955Z,16.00
2018-05-17T19:05:21.264Z,16.00
2018-05-17T19:07:54.652Z,15.80
2018-05-17T19:10:27.972Z,15.60
2018-05-17T19:13:00.367Z,15.60
2018-05-17T19:15:33.777Z,15.50
2018-05-17T19:18:07.182Z,15.30
2018-05-17T19:20:41.650Z,15.20
2018-05-17T19:23:14.313Z,15.20
2018-05-17T19:25:48.844Z,15.20
2018-05-17T19:28:21.176Z,15.10
2018-05-17T19:30:53.825Z,15.10
2018-05-17T19:33:26.293Z,15.10
2018-05-17T19:35:59.493Z,15.00
2018-05-17T19:38:32.564Z,14.90
2018-05-17T19:41:06.816Z,14.70
2018-05-17T19:43:42.799Z,14.70
2018-05-17T19:46:16.309Z,14.60
2018-05-17T19:48:49.664Z,14.30
2018-05-17T19:51:22.201Z,14.30
2018-05-17T19:53:56.637Z,14.20
2018-05-17T19:56:33.527Z,14.00
2018-05-17T19:59:07.757Z,13.80
2018-05-17T20:01:51.904Z,13.70
2018-05-17T20:04:39.806Z,13.80
2018-05-17T20:07:12.576Z,13.70
2018-05-17T20:09:44.972Z,13.80
2018-05-17T20:12:29.021Z,13.30
2018-05-17T20:15:01.385Z,13.30
2018-05-17T20:17:35.620Z,12.80
2018-05-17T20:20:08.222Z,12.80
2018-05-17T20:22:44.591Z,12.80
2018-05-17T20:25:17.070Z,12.70
2018-05-17T20:27:49.680Z,12.60
2018-05-17T20:30:22.825Z,12.60
2018-05-17T20:32:58.727Z,12.60
2018-05-17T20:35:42.181Z,12.70
2018-05-17T20:38:19.689Z,12.50
2018-05-17T20:40:52.009Z,12.70
2018-05-17T20:43:24.553Z,12.70
2018-05-17T20:45:57.972Z,12.70
2018-05-17T20:48:43.608Z,12.60
2018-05-17T20:51:16.737Z,12.40
2018-05-17T20:53:52.959Z,12.40
2018-05-17T20:56:28.613Z,12.40
2018-05-17T20:59:02.137Z,12.60
2018-05-17T21:01:34.744Z,12.50
2018-05-17T21:04:10.796Z,12.40
2018-05-17T21:06:45.212Z,12.20
2018-05-17T21:09:17.622Z,12.10
2018-05-17T21:11:54.800Z,11.90
2018-05-17T21:14:29.457Z,11.80
2018-05-17T21:17:04.079Z,11.70
2018-05-17T21:19:36.558Z,11.80
2018-05-17T21:22:15.287Z,11.80
2018-05-17T21:24:51.784Z,11.80
2018-05-17T21:27:24.261Z,11.80
2018-05-17T21:29:56.960Z,11.80
2018-05-17T21:32:35.410Z,11.70
2018-05-17T21:35:08.069Z,11.70
2018-05-17T21:37:40.643Z,11.60
2018-05-17T21:40:15.412Z,11.60
2018-05-17T21:42:47.900Z,11.60
2018-05-17T21:45:21.520Z,11.60
2018-05-17T21:47:54.931Z,11.60
2018-05-17T21:50:27.493Z,11.60
2018-05-17T21:53:00.097Z,11.40
2018-05-17T21:55:35.918Z,11.30
2018-05-17T21:58:08.550Z,11.40
2018-05-17T22:00:42.893Z,11.40
2018-05-17T22:03:17.326Z,11.30
2018-05-17T22:05:50.841Z,11.40
2018-05-17T22:08:24.274Z,11.40
2018-05-17T22:10:56.696Z,11.40
2018-05-17T22:13:29.992Z,11.20
2018-05-17T22:16:07.948Z,11.20
2018-05-17T22:18:51.516Z,11.20
2018-05-17T22:21:24.081Z,11.10
2018-05-17T22:23:58.636Z,11.10
2018-05-17T22:26:31.113Z,11.20
2018-05-17T22:29:08.314Z,11.20
2018-05-17T22:31:40.688Z,11.10
2018-05-17T22:34:14.036Z,10.70
2018-05-17T22:36:47.629Z,10.70
2018-05-17T22:39:20.208Z,10.70
2018-05-17T22:41:52.609Z,10.70
2018-05-17T22:44:37.701Z,10.70
2018-05-17T22:47:11.080Z,10.70
2018-05-17T22:49:46.968Z,10.70
2018-05-17T22:52:21.387Z,10.80
2018-05-17T22:54:55.707Z,10.70
2018-05-17T22:57:42.203Z,10.70
2018-05-17T23:00:15.740Z,10.70
2018-05-17T23:02:51.214Z,10.80
2018-05-17T23:05:23.897Z,10.90
2018-05-17T23:07:57.509Z,10.90
2018-05-17T23:10:31.020Z,10.90
2018-05-17T23:13:08.420Z,10.80
2018-05-17T23:15:40.926Z,10.60
2018-05-17T23:18:14.641Z,10.60
2018-05-17T23:20:47.729Z,10.20
2018-05-17T23:23:23.523Z,10.20
2018-05-17T23:25:55.907Z,10.30
2018-05-17T23:28:39.444Z,10.30
2018-05-17T23:31:13.900Z,10.30
2018-05-17T23:33:46.345Z,10.20
2018-05-17T23:36:18.858Z,10.10
2018-05-17T23:38:57.259Z,10.10
2018-05-17T23:41:36.576Z,10.00
2018-05-17T23:44:10.025Z,10.00
2018-05-17T23:46:44.333Z,10.00
2018-05-17T23:49:16.834Z,10.00
2018-05-17T23:51:59.977Z,10.00
2018-05-17T23:54:32.359Z,10.00
2018-05-17T23:57:18.784Z,9.90
2018-05-17T23:59:54.435Z,9.90
